Station: Kingscote

  Atmospheric Gas Attenuation - ITU Rec 676-11   --------------- db/100km ---------------
Date Time Temp RH % AH g/m3 Dew Point Wind Direction Speed kph Gust kph Barometer mB Rainfall Since 9am 24GHz 47GHz 76GHz 122GHz 134GHz 241GHz
13 07:10 4.7 96 6.4 4.1 0 0 1027.4 0.4 15.3 25.4 35.7 93.2 80.2 273.3
13 07:00 4.7 97 6.47 4.3 6 9 1027.4 0.4 15.4 25.5 36.0 94.0 81.2 276.7
13 06:50 4.6 97 6.42 4.2 9 9 1027.2 0.4 15.3 25.5 35.8 93.6 80.6 274.6
13 06:40 4.3 96 6.23 3.7 7 7 1027.2 0.4 14.9 25.2 35.2 91.8 78.2 266.4
13 06:30 4.1 96 6.15 3.5 7 9 1027.2 0.4 14.7 25.2 34.9 91.1 77.3 263.2
13 06:20 4.2 96 6.19 3.6 7 7 1027 0.4 14.8 25.2 35.0 91.4 77.8 264.7
13 06:10 4.2 96 6.19 3.6 9 9 1026.9 0.4 14.8 25.2 35.0 91.4 77.8 264.7
13 06:00 4.2 96 6.19 3.6 7 9 1026.8 0.4 14.8 25.2 35.0 91.4 77.8 264.7
13 05:50 4.1 96 6.15 3.5 7 7 1026.6 0.4 14.7 25.1 34.9 91.1 77.3 263.1
13 05:40 4.5 96 6.32 3.9 7 9 1026.6 0.4 15.1 25.3 35.4 92.5 79.3 269.9
13 05:30 4.2 96 6.19 3.6 9 9 1026.6 0.4 14.8 25.2 35.0 91.4 77.8 264.7
13 05:20 4.5 96 6.32 3.9 6 7 1026.5 0.4 15.1 25.3 35.4 92.5 79.2 269.9
13 05:10 4.6 95 6.29 3.9 6 7 1026.5 0.4 15.0 25.2 35.3 92.0 78.7 268.1
13 04:50 5.4 96 6.7 4.8 6 7 1026.4 0.4 15.9 25.7 36.6 95.7 83.6 285.2
13 04:40 5.6 96 6.79 5 7 7 1026.2 0.4 16.1 25.8 36.9 96.4 84.6 288.8
13 04:30 5.7 96 6.84 5.1 6 7 1026.3 0.4 16.2 25.8 37.1 96.9 85.2 290.9
13 04:20 5.7 96 6.84 5.1 7 9 1026.3 0.4 16.2 25.8 37.1 96.9 85.2 290.9
13 04:10 5.1 96 6.57 4.5 7 7 1026.2 0.4 15.6 25.5 36.2 94.5 82.1 279.9
13 04:00 5.3 95 6.59 4.6 7 9 1026.3 0.4 15.6 25.5 36.2 94.5 82.1 280.2
13 03:50 6.2 95 6.99 5.5 7 7 1026.3 0.4 16.5 25.9 37.5 97.9 86.7 296.3
13 03:40 6.9 96 7.39 6.3 7 7 1026.2 0.4 17.3 26.4 38.8 101.5 91.5 313.1
13 03:30 7.3 96 7.59 6.7 6 7 1026.4 0.4 17.7 26.6 39.5 103.3 93.8 321.3
13 03:20 7.2 95 7.46 6.5 6 6 1026.3 0.4 17.4 26.4 39.0 102.0 92.1 315.4
13 03:10 8.3 96 8.09 7.7 6 7 1026.3 0.4 18.7 27.2 41.1 107.7 99.6 341.7
13 03:00 8.1 96 7.99 7.5 6 7 1026.3 0.4 18.5 27.1 40.8 106.8 98.4 337.6
13 02:50 7.6 96 7.74 7 7 9 1026.2 0.4 18.0 26.8 40.0 104.6 95.5 327.4
13 02:40 8.1 96 7.99 7.5 9 9 1026.2 0.4 18.5 27.1 40.8 106.8 98.4 337.6
13 02:30 7.8 96 7.84 7.2 9 9 1026.4 0.4 18.2 26.9 40.3 105.5 96.7 331.5
13 02:20 8.1 96 7.99 7.5 9 9 1026.2 0.4 18.5 27.1 40.8 106.8 98.4 337.6
13 02:10 8.4 96 8.15 7.8 9 11 1026.2 0.4 18.9 27.3 41.3 108.2 100.3 344.2
13 02:00 7.6 96 7.74 7 9 11 1026.2 0.4 18.0 26.8 40.0 104.6 95.5 327.4
13 01:50 7.4 95 7.56 6.7 9 11 1026.1 0.4 17.6 26.5 39.3 102.8 93.2 319.4
13 01:40 7.9 95 7.81 7.1 9 11 1026.1 0.4 18.2 26.8 40.1 105.0 96.1 329.6
13 01:30 7.8 95 7.76 7.1 13 13 1026.2 0.4 18.1 26.8 39.9 104.6 95.6 327.6
13 01:20 8.1 95 7.91 7.3 11 11 1026.2 0.4 18.4 26.9 40.4 105.9 97.3 333.7
13 01:10 8.2 96 8.04 7.6 7 9 1026.3 0.4 18.6 27.1 40.9 107.2 99.0 339.7
13 01:00 7.6 95 7.66 6.9 11 13 1026.4 0.4 17.9 26.7 39.6 103.7 94.4 323.5
13 00:50 7.4 95 7.56 6.7 11 11 1026.2 0.4 17.6 26.6 39.3 102.8 93.2 319.4
13 00:40 7.6 95 7.66 6.9 9 9 1026.2 0.4 17.9 26.7 39.6 103.7 94.4 323.5
13 00:30 7.4 95 7.56 6.7 9 11 1026.3 0.4 17.6 26.6 39.3 102.8 93.3 319.4
13 00:20 7.3 94 7.43 6.4 11 11 1026.2 0.4 17.4 26.4 38.8 101.5 91.6 313.5
13 00:10 8 95 7.86 7.2 9 9 1026.2 0.4 18.3 26.9 40.3 105.4 96.7 331.6
13 00:00 7.8 95 7.76 7.1 6 7 1026.2 0.4 18.1 26.8 39.9 104.6 95.6 327.6
12 23:50 7.5 94 7.53 6.6 6 7 1026.1 0.4 17.6 26.5 39.1 102.3 92.7 317.5
12 23:40 8 94 7.77 7.1 9 9 1026 0.4 18.1 26.7 39.9 104.4 95.4 327.2
12 23:30 8 94 7.77 7.1 7 7 1026.2 0.4 18.1 26.7 39.9 104.4 95.4 327.2
12 23:20 8 94 7.77 7.1 7 7 1026 0.4 18.1 26.7 39.9 104.4 95.4 327.2
12 23:10 8.6 94 8.08 7.7 7 7 1026 0.4 18.7 27.1 40.9 107.1 99.0 339.8
12 23:00 8.6 94 8.08 7.7 6 7 1026.1 0.4 18.7 27.1 40.9 107.1 99.0 339.8
12 22:50 8.6 95 8.17 7.8 6 7 1026 0.4 18.9 27.2 41.3 108.1 100.3 344.2
12 22:40 8.8 95 8.27 8 13 13 1025.8 0.4 19.1 27.3 41.6 109.0 101.4 348.2
12 22:30 8.9 96 8.41 8.3 13 15 1026 0.4 19.4 27.5 42.1 110.4 103.3 354.7
12 22:20 8 95 7.86 7.2 11 11 1025.9 0.4 18.3 26.9 40.2 105.4 96.7 331.5
12 22:10 7.2 94 7.38 6.3 11 11 1025.9 0.4 17.3 26.3 38.6 101.0 90.9 311.3
12 22:00 7.1 94 7.33 6.2 7 9 1025.9 0.4 17.2 26.2 38.4 100.6 90.4 309.3
12 21:50 7 93 7.21 5.9 7 7 1025.7 0.4 16.9 26.1 38.0 99.3 88.8 303.8
12 21:40 7.6 94 7.58 6.7 7 9 1025.6 0.4 17.7 26.5 39.2 102.7 93.2 319.4
12 21:30 7.7 94 7.63 6.8 6 7 1025.7 0.4 17.8 26.6 39.4 103.2 93.8 321.5
12 21:20 7.5 94 7.53 6.6 6 6 1025.7 0.4 17.6 26.5 39.1 102.3 92.7 317.4
12 21:10 7.6 94 7.58 6.7 7 9 1025.7 0.4 17.7 26.5 39.2 102.7 93.2 319.4
12 21:00 7.8 94 7.67 6.9 9 11 1025.7 0.4 17.9 26.6 39.5 103.5 94.3 323.0
12 20:50 7.2 92 7.23 6 9 9 1025.6 0.4 16.9 26.0 38.0 99.3 88.8 304.0
12 20:40 7.8 92 7.51 6.6 7 9 1025.6 0.4 17.5 26.3 38.8 101.7 92.0 315.2
12 20:30 8.7 93 8.05 7.6 6 7 1025.6 0.4 18.6 27.0 40.7 106.6 98.4 337.8
12 20:20 8.6 93 7.99 7.5 6 6 1025.5 0.4 18.5 26.9 40.5 106.0 97.7 335.2
12 20:10 8.5 92 7.86 7.3 6 7 1025.4 0.4 18.2 26.7 40.0 104.7 96.0 329.3
12 20:00 8.6 92 7.91 7.4 7 9 1025.5 0.4 18.3 26.8 40.1 105.1 96.6 331.3
12 19:50 8.8 92 8.01 7.6 9 9 1025.2 0.4 18.6 26.9 40.4 105.9 97.7 335.3
12 19:40 9 91 8.03 7.6 7 7 1025.1 0.4 18.6 26.8 40.4 105.9 97.7 335.4
12 19:30 9.2 91 8.13 7.8 7 7 1025.1 0.4 18.8 26.9 40.7 106.7 98.9 339.4
12 19:20 9.3 90 8.09 7.7 7 7 1024.9 0.4 18.7 26.8 40.5 106.1 98.2 336.9
12 19:10 9.5 90 8.19 7.9 7 7 1024.8 0.4 18.9 26.9 40.8 107.0 99.3 340.9
12 19:00 9.7 90 8.3 8.1 9 13 1024.9 0.4 19.1 27.1 41.2 107.9 100.6 345.4
12 18:50 9.9 90 8.41 8.3 11 13 1024.6 0.4 19.4 27.2 41.5 108.9 101.8 349.8
12 18:40 10.1 89 8.42 8.4 13 13 1024.5 0.4 19.4 27.1 41.5 108.7 101.7 349.4
12 18:30 10.4 90 8.68 8.8 15 17 1024.4 0.4 19.9 27.5 42.4 111.2 104.9 360.7
12 18:20 10.4 89 8.58 8.7 15 15 1024.2 0.4 19.7 27.3 42.0 110.1 103.5 355.7
12 18:10 10.5 88 8.54 8.6 15 15 1024.2 0.4 19.6 27.2 41.8 109.5 102.8 353.3
12 18:00 10.8 87 8.6 8.7 11 13 1024.2 0.4 19.7 27.2 41.8 109.7 103.2 354.9
12 17:50 11.2 86 8.72 8.9 11 11 1024 0.4 20.0 27.3 42.1 110.5 104.3 358.8
12 17:40 11.4 86 8.83 9.1 11 13 1023.8 0.4 20.2 27.4 42.5 111.4 105.6 363.1
12 17:30 11.6 84 8.73 9 11 11 1023.8 0.4 20.0 27.2 41.9 110.0 103.9 357.4
12 17:20 12.2 82 8.85 9.2 11 11 1023.6 0.4 20.2 27.2 42.1 110.5 104.7 360.3
12 17:10 12.7 80 8.91 9.3 13 15 1023.5 0.4 20.3 27.1 42.1 110.4 104.9 360.9
12 17:00 13 79 8.96 9.4 11 15 1023.4 0.4 20.4 27.1 42.1 110.5 105.1 361.8
12 16:50 13.3 78 9.01 9.5 13 15 1023.2 0.4 20.5 27.1 42.2 110.7 105.4 362.8
12 16:40 13.4 77 8.95 9.5 17 19 1023.1 0.4 20.3 27.0 41.9 109.8 104.4 359.4
12 16:30 13.9 75 8.99 9.5 17 20 1023.2 0.4 20.4 26.9 41.8 109.6 104.3 359.1
12 16:20 14 75 9.05 9.6 15 19 1023.1 0.4 20.5 26.9 42.0 110.1 105.0 361.4
12 16:10 14.1 73 8.86 9.3 19 22 1023 0.4 20.1 26.6 41.1 107.9 102.3 352.0
12 16:00 14.8 71 8.99 9.6 22 28 1023 0.4 20.4 26.6 41.3 108.3 103.1 354.9
12 15:50 15 72 9.23 10 24 26 1022.9 0.4 20.9 26.9 42.2 110.6 106.0 365.2
12 15:40 14.4 75 9.27 10 17 20 1022.9 0.4 21.0 27.2 42.6 111.9 107.4 369.9
12 15:30 14.1 73 8.86 9.3 22 30 1022.9 0.4 20.1 26.6 41.1 107.9 102.3 352.0
12 15:20 14.5 71 8.83 9.3 24 28 1022.7 0.4 20.0 26.4 40.8 107.0 101.3 348.7
12 15:10 14.3 73 8.97 9.5 20 24 1022.6 0.4 20.3 26.7 41.5 108.8 103.4 356.1
12 15:00 14.4 72 8.9 9.4 24 32 1022.6 0.4 20.2 26.6 41.1 107.9 102.4 352.4
12 14:50 15.3 68 8.88 9.4 26 32 1022.4 0.4 20.1 26.3 40.6 106.4 100.9 347.4
12 14:40 15.2 67 8.7 9.1 30 33 1022.4 0.4 19.7 26.0 39.9 104.6 98.7 339.6
12 14:30 15 68 8.72 9.1 22 30 1022.5 0.4 19.8 26.1 40.1 105.1 99.2 341.4

Last Refresh: 13-Jul-2020 07:21:04

Most of the information presented on this site is sourced from the Bureau of Meteorology.  Copyright in all material sourced from the Bureau of Meteorology resides with the Commonwealth of Australia.